sensor_id;sensor_type;location;lat;lon;timestamp;pressure;altitude;pressure_sealevel;temperature;humidity
76374;BME280;65197;50.164;8.012;2023-07-02T00:00:50;94856.72;;;12.04;100.00
76374;BME280;65197;50.164;8.012;2023-07-02T00:03:17;94874.94;;;12.12;100.00
76374;BME280;65197;50.164;8.012;2023-07-02T00:05:47;94861.13;;;12.02;100.00
76374;BME280;65197;50.164;8.012;2023-07-02T00:08:12;94852.19;;;11.95;100.00
76374;BME280;65197;50.164;8.012;2023-07-02T00:10:38;94861.31;;;11.99;100.00
76374;BME280;65197;50.164;8.012;2023-07-02T00:13:03;94873.06;;;12.02;100.00
76374;BME280;65197;50.164;8.012;2023-07-02T00:15:29;94857.72;;;11.89;100.00
76374;BME280;65197;50.164;8.012;2023-07-02T00:17:54;94864.88;;;11.96;100.00
76374;BME280;65197;50.164;8.012;2023-07-02T00:20:22;94871.81;;;11.94;100.00
76374;BME280;65197;50.164;8.012;2023-07-02T00:22:48;94849.06;;;11.77;100.00
76374;BME280;65197;50.164;8.012;2023-07-02T00:25:14;94866.66;;;11.82;100.00
76374;BME280;65197;50.164;8.012;2023-07-02T00:27:39;94857.41;;;11.66;100.00
76374;BME280;65197;50.164;8.012;2023-07-02T00:30:07;94864.72;;;11.58;100.00
76374;BME280;65197;50.164;8.012;2023-07-02T00:32:33;94867.56;;;11.54;100.00
76374;BME280;65197;50.164;8.012;2023-07-02T00:34:58;94862.22;;;11.44;100.00
76374;BME280;65197;50.164;8.012;2023-07-02T00:37:24;94853.91;;;11.40;100.00
76374;BME280;65197;50.164;8.012;2023-07-02T00:39:49;94844.22;;;11.33;100.00
76374;BME280;65197;50.164;8.012;2023-07-02T00:42:15;94850.72;;;11.37;100.00
76374;BME280;65197;50.164;8.012;2023-07-02T00:44:41;94843.56;;;11.29;100.00
76374;BME280;65197;50.164;8.012;2023-07-02T00:47:10;94847.88;;;11.29;100.00
76374;BME280;65197;50.164;8.012;2023-07-02T00:49:36;94845.38;;;11.27;100.00
76374;BME280;65197;50.164;8.012;2023-07-02T00:52:02;94831.13;;;11.10;100.00
76374;BME280;65197;50.164;8.012;2023-07-02T00:54:28;94841.41;;;11.09;100.00
76374;BME280;65197;50.164;8.012;2023-07-02T00:56:54;94837.50;;;11.03;100.00
76374;BME280;65197;50.164;8.012;2023-07-02T00:59:20;94841.91;;;11.01;100.00
76374;BME280;65197;50.164;8.012;2023-07-02T01:01:45;94845.38;;;11.00;100.00
76374;BME280;65197;50.164;8.012;2023-07-02T01:04:17;94835.72;;;10.91;100.00
76374;BME280;65197;50.164;8.012;2023-07-02T01:06:43;94842.06;;;10.98;100.00
76374;BME280;65197;50.164;8.012;2023-07-02T01:09:09;94836.81;;;10.87;100.00
76374;BME280;65197;50.164;8.012;2023-07-02T01:11:41;94846.09;;;10.88;100.00
76374;BME280;65197;50.164;8.012;2023-07-02T01:16:36;94824.69;;;10.76;100.00
76374;BME280;65197;50.164;8.012;2023-07-02T01:19:04;94830.59;;;10.77;100.00
76374;BME280;65197;50.164;8.012;2023-07-02T01:21:35;94830.34;;;10.67;100.00
76374;BME280;65197;50.164;8.012;2023-07-02T01:24:01;94835.16;;;10.57;100.00
76374;BME280;65197;50.164;8.012;2023-07-02T01:26:32;94834.25;;;10.58;100.00
76374;BME280;65197;50.164;8.012;2023-07-02T01:29:19;94831.91;;;10.55;100.00
76374;BME280;65197;50.164;8.012;2023-07-02T01:31:46;94832.06;;;10.52;100.00
76374;BME280;65197;50.164;8.012;2023-07-02T01:34:12;94836.34;;;10.52;100.00
76374;BME280;65197;50.164;8.012;2023-07-02T01:36:38;94840.81;;;10.48;100.00
76374;BME280;65197;50.164;8.012;2023-07-02T01:39:04;94841.34;;;10.39;100.00
76374;BME280;65197;50.164;8.012;2023-07-02T01:41:36;94829.13;;;10.30;100.00
76374;BME280;65197;50.164;8.012;2023-07-02T01:44:03;94829.41;;;10.25;100.00
76374;BME280;65197;50.164;8.012;2023-07-02T01:46:28;94814.47;;;10.19;100.00
76374;BME280;65197;50.164;8.012;2023-07-02T01:48:54;94828.75;;;10.22;100.00
76374;BME280;65197;50.164;8.012;2023-07-02T01:51:19;94831.78;;;10.28;100.00
76374;BME280;65197;50.164;8.012;2023-07-02T01:53:45;94845.34;;;10.29;100.00
76374;BME280;65197;50.164;8.012;2023-07-02T01:56:10;94845.84;;;10.19;100.00
76374;BME280;65197;50.164;8.012;2023-07-02T01:58:35;94849.31;;;10.18;100.00
76374;BME280;65197;50.164;8.012;2023-07-02T02:01:01;94849.84;;;10.09;100.00
76374;BME280;65197;50.164;8.012;2023-07-02T02:03:26;94849.84;;;10.09;100.00
76374;BME280;65197;50.164;8.012;2023-07-02T02:05:51;94855.47;;;10.00;100.00
76374;BME280;65197;50.164;8.012;2023-07-02T02:08:17;94848.78;;;9.98;100.00
76374;BME280;65197;50.164;8.012;2023-07-02T02:10:42;94833.81;;;9.77;100.00
76374;BME280;65197;50.164;8.012;2023-07-02T02:13:07;94852.59;;;9.90;100.00
76374;BME280;65197;50.164;8.012;2023-07-02T02:15:33;94863.53;;;9.92;100.00
76374;BME280;65197;50.164;8.012;2023-07-02T02:17:58;94872.72;;;9.95;100.00
76374;BME280;65197;50.164;8.012;2023-07-02T02:20:23;94877.97;;;9.92;100.00
76374;BME280;65197;50.164;8.012;2023-07-02T02:22:49;94876.00;;;9.97;100.00
76374;BME280;65197;50.164;8.012;2023-07-02T02:25:14;94865.16;;;9.93;100.00
76374;BME280;65197;50.164;8.012;2023-07-02T02:27:40;94874.53;;;9.93;100.00
76374;BME280;65197;50.164;8.012;2023-07-02T02:30:06;94888.16;;;9.92;100.00
76374;BME280;65197;50.164;8.012;2023-07-02T02:32:32;94876.34;;;9.91;100.00
76374;BME280;65197;50.164;8.012;2023-07-02T02:34:57;94872.75;;;9.79;100.00
76374;BME280;65197;50.164;8.012;2023-07-02T02:37:23;94875.63;;;9.73;100.00
76374;BME280;65197;50.164;8.012;2023-07-02T02:39:49;94885.41;;;9.81;100.00
76374;BME280;65197;50.164;8.012;2023-07-02T02:42:15;94890.72;;;9.92;100.00
76374;BME280;65197;50.164;8.012;2023-07-02T02:44:40;94888.53;;;9.86;100.00
76374;BME280;65197;50.164;8.012;2023-07-02T02:47:05;94877.03;;;9.79;100.00
76374;BME280;65197;50.164;8.012;2023-07-02T02:49:31;94879.31;;;9.83;100.00
76374;BME280;65197;50.164;8.012;2023-07-02T02:51:56;94887.78;;;9.84;100.00
76374;BME280;65197;50.164;8.012;2023-07-02T02:54:22;94880.22;;;9.82;100.00
76374;BME280;65197;50.164;8.012;2023-07-02T02:56:47;94865.72;;;9.68;100.00
76374;BME280;65197;50.164;8.012;2023-07-02T02:59:12;94872.94;;;9.76;100.00
76374;BME280;65197;50.164;8.012;2023-07-02T03:01:38;94873.00;;;9.75;100.00
76374;BME280;65197;50.164;8.012;2023-07-02T03:04:03;94872.06;;;9.61;100.00
76374;BME280;65197;50.164;8.012;2023-07-02T03:06:29;94887.47;;;9.74;100.00
76374;BME280;65197;50.164;8.012;2023-07-02T03:08:55;94875.22;;;9.65;100.00
76374;BME280;65197;50.164;8.012;2023-07-02T03:11:20;94874.72;;;9.74;100.00
76374;BME280;65197;50.164;8.012;2023-07-02T03:13:46;94875.19;;;9.66;100.00
76374;BME280;65197;50.164;8.012;2023-07-02T03:16:11;94886.75;;;9.72;100.00
76374;BME280;65197;50.164;8.012;2023-07-02T03:18:36;94881.16;;;9.65;100.00
76374;BME280;65197;50.164;8.012;2023-07-02T03:21:02;94874.41;;;9.64;100.00
76374;BME280;65197;50.164;8.012;2023-07-02T03:23:27;94877.47;;;9.71;100.00
76374;BME280;65197;50.164;8.012;2023-07-02T03:25:53;94879.16;;;9.70;100.00
76374;BME280;65197;50.164;8.012;2023-07-02T03:28:18;94864.06;;;9.67;100.00
76374;BME280;65197;50.164;8.012;2023-07-02T03:30:43;94870.66;;;9.72;100.00
76374;BME280;65197;50.164;8.012;2023-07-02T03:33:09;94884.09;;;9.74;100.00
76374;BME280;65197;50.164;8.012;2023-07-02T03:35:35;94880.63;;;9.75;100.00
76374;BME280;65197;50.164;8.012;2023-07-02T03:38:00;94869.16;;;9.67;100.00
76374;BME280;65197;50.164;8.012;2023-07-02T03:40:26;94867.34;;;9.69;100.00
76374;BME280;65197;50.164;8.012;2023-07-02T03:42:51;94848.66;;;9.55;100.00
76374;BME280;65197;50.164;8.012;2023-07-02T03:45:16;94864.06;;;9.67;100.00
76374;BME280;65197;50.164;8.012;2023-07-02T03:47:42;94872.94;;;9.76;100.00
76374;BME280;65197;50.164;8.012;2023-07-02T03:50:09;94878.66;;;9.80;100.00
76374;BME280;65197;50.164;8.012;2023-07-02T03:52:34;94887.66;;;10.01;100.00
76374;BME280;65197;50.164;8.012;2023-07-02T03:54:59;94885.66;;;10.06;100.00
76374;BME280;65197;50.164;8.012;2023-07-02T03:57:25;94883.88;;;10.08;100.00
76374;BME280;65197;50.164;8.012;2023-07-02T03:59:51;94885.16;;;10.15;100.00
76374;BME280;65197;50.164;8.012;2023-07-02T04:02:16;94890.50;;;10.27;100.00
76374;BME280;65197;50.164;8.012;2023-07-02T04:04:42;94898.69;;;10.32;100.00
76374;BME280;65197;50.164;8.012;2023-07-02T04:07:07;94893.03;;;10.27;100.00
76374;BME280;65197;50.164;8.012;2023-07-02T04:09:32;94905.63;;;10.44;100.00
76374;BME280;65197;50.164;8.012;2023-07-02T04:11:59;94894.81;;;10.40;100.00
76374;BME280;65197;50.164;8.012;2023-07-02T04:14:24;94908.00;;;10.47;100.00
76374;BME280;65197;50.164;8.012;2023-07-02T04:16:50;94913.47;;;10.55;100.00
76374;BME280;65197;50.164;8.012;2023-07-02T04:19:15;94902.53;;;10.53;100.00
76374;BME280;65197;50.164;8.012;2023-07-02T04:21:41;94908.47;;;10.54;100.00
76374;BME280;65197;50.164;8.012;2023-07-02T04:24:06;94910.03;;;10.56;100.00
76374;BME280;65197;50.164;8.012;2023-07-02T04:26:32;94921.31;;;10.66;100.00
76374;BME280;65197;50.164;8.012;2023-07-02T04:28:57;94923.16;;;10.64;100.00
76374;BME280;65197;50.164;8.012;2023-07-02T04:31:24;94928.81;;;10.69;100.00
76374;BME280;65197;50.164;8.012;2023-07-02T04:33:49;94930.34;;;10.72;100.00
76374;BME280;65197;50.164;8.012;2023-07-02T04:36:15;94928.63;;;10.73;100.00
76374;BME280;65197;50.164;8.012;2023-07-02T04:38:40;94942.81;;;10.77;100.00
76374;BME280;65197;50.164;8.012;2023-07-02T04:41:05;94939.91;;;10.68;100.00
76374;BME280;65197;50.164;8.012;2023-07-02T04:43:31;94945.09;;;10.81;100.00
76374;BME280;65197;50.164;8.012;2023-07-02T04:45:58;94950.50;;;10.91;100.00
76374;BME280;65197;50.164;8.012;2023-07-02T04:48:23;94961.81;;;11.01;100.00
76374;BME280;65197;50.164;8.012;2023-07-02T04:50:49;94958.34;;;11.02;100.00
76374;BME280;65197;50.164;8.012;2023-07-02T04:53:15;94946.50;;;11.01;100.00
76374;BME280;65197;50.164;8.012;2023-07-02T04:55:41;94959.44;;;11.12;100.00
76374;BME280;65197;50.164;8.012;2023-07-02T04:58:06;94951.78;;;11.12;100.00
76374;BME280;65197;50.164;8.012;2023-07-02T05:00:31;94958.25;;;11.18;100.00
76374;BME280;65197;50.164;8.012;2023-07-02T05:02:57;94948.78;;;11.20;100.00
76374;BME280;65197;50.164;8.012;2023-07-02T05:05:22;94971.25;;;11.28;100.00
76374;BME280;65197;50.164;8.012;2023-07-02T05:07:47;94959.63;;;11.24;100.00
76374;BME280;65197;50.164;8.012;2023-07-02T05:10:13;94966.91;;;11.30;100.00
76374;BME280;65197;50.164;8.012;2023-07-02T05:12:39;94963.97;;;11.36;100.00
76374;BME280;65197;50.164;8.012;2023-07-02T05:15:05;94964.34;;;11.44;100.00
76374;BME280;65197;50.164;8.012;2023-07-02T05:17:30;94968.88;;;11.53;100.00
76374;BME280;65197;50.164;8.012;2023-07-02T05:19:59;94972.63;;;11.62;100.00
76374;BME280;65197;50.164;8.012;2023-07-02T05:22:25;94955.84;;;11.58;100.00
76374;BME280;65197;50.164;8.012;2023-07-02T05:24:50;94965.91;;;11.73;100.00
76374;BME280;65197;50.164;8.012;2023-07-02T05:27:16;94969.69;;;11.82;100.00
76374;BME280;65197;50.164;8.012;2023-07-02T05:29:41;94973.78;;;11.85;100.00
76374;BME280;65197;50.164;8.012;2023-07-02T05:32:06;94981.41;;;11.99;100.00
76374;BME280;65197;50.164;8.012;2023-07-02T05:34:32;94980.03;;;12.08;100.00
76374;BME280;65197;50.164;8.012;2023-07-02T05:36:57;94970.44;;;12.11;100.00
76374;BME280;65197;50.164;8.012;2023-07-02T05:39:22;94968.59;;;12.13;100.00
76374;BME280;65197;50.164;8.012;2023-07-02T05:41:48;94975.84;;;12.19;100.00
76374;BME280;65197;50.164;8.012;2023-07-02T05:44:13;94972.94;;;12.26;100.00
76374;BME280;65197;50.164;8.012;2023-07-02T05:46:39;94981.13;;;12.31;100.00
76374;BME280;65197;50.164;8.012;2023-07-02T05:49:04;94975.22;;;12.43;100.00
76374;BME280;65197;50.164;8.012;2023-07-02T05:51:31;94983.53;;;12.59;100.00
76374;BME280;65197;50.164;8.012;2023-07-02T05:53:56;94982.84;;;12.57;100.00
76374;BME280;65197;50.164;8.012;2023-07-02T05:56:22;94975.28;;;12.68;100.00
76374;BME280;65197;50.164;8.012;2023-07-02T05:58:48;94989.91;;;12.79;100.00
76374;BME280;65197;50.164;8.012;2023-07-02T06:01:14;94971.59;;;12.72;100.00
76374;BME280;65197;50.164;8.012;2023-07-02T06:03:40;94987.75;;;12.73;100.00
76374;BME280;65197;50.164;8.012;2023-07-02T06:06:05;94982.75;;;12.71;100.00
76374;BME280;65197;50.164;8.012;2023-07-02T06:08:30;94977.13;;;12.66;100.00
76374;BME280;65197;50.164;8.012;2023-07-02T06:10:56;94983.47;;;12.73;100.00
76374;BME280;65197;50.164;8.012;2023-07-02T06:13:21;94991.84;;;12.75;100.00
76374;BME280;65197;50.164;8.012;2023-07-02T06:15:46;94998.84;;;12.99;100.00
76374;BME280;65197;50.164;8.012;2023-07-02T06:18:12;94997.63;;;13.05;100.00
76374;BME280;65197;50.164;8.012;2023-07-02T06:20:38;94989.72;;;13.20;100.00
76374;BME280;65197;50.164;8.012;2023-07-02T06:23:03;94990.47;;;13.35;100.00
76374;BME280;65197;50.164;8.012;2023-07-02T06:25:28;95003.88;;;13.52;100.00
76374;BME280;65197;50.164;8.012;2023-07-02T06:27:54;95007.13;;;13.66;100.00
76374;BME280;65197;50.164;8.012;2023-07-02T06:30:23;95004.34;;;13.82;100.00
76374;BME280;65197;50.164;8.012;2023-07-02T06:32:48;95008.72;;;14.17;100.00
76374;BME280;65197;50.164;8.012;2023-07-02T06:35:14;95006.16;;;14.41;100.00
76374;BME280;65197;50.164;8.012;2023-07-02T06:37:39;95020.94;;;14.37;100.00
76374;BME280;65197;50.164;8.012;2023-07-02T06:40:05;95026.13;;;14.61;100.00
76374;BME280;65197;50.164;8.012;2023-07-02T06:42:31;95010.88;;;14.47;100.00
76374;BME280;65197;50.164;8.012;2023-07-02T06:44:56;95003.56;;;14.30;100.00
76374;BME280;65197;50.164;8.012;2023-07-02T06:47:22;95020.38;;;14.93;100.00
76374;BME280;65197;50.164;8.012;2023-07-02T06:49:47;95020.22;;;14.83;100.00
76374;BME280;65197;50.164;8.012;2023-07-02T06:52:12;95030.47;;;14.72;100.00
76374;BME280;65197;50.164;8.012;2023-07-02T06:54:38;95027.03;;;14.60;100.00
76374;BME280;65197;50.164;8.012;2023-07-02T06:57:03;95029.44;;;15.32;100.00
76374;BME280;65197;50.164;8.012;2023-07-02T06:59:29;95034.38;;;14.89;100.00
76374;BME280;65197;50.164;8.012;2023-07-02T07:01:54;95032.25;;;15.18;100.00
76374;BME280;65197;50.164;8.012;2023-07-02T07:04:19;95041.06;;;15.94;99.27
76374;BME280;65197;50.164;8.012;2023-07-02T07:06:45;95028.09;;;15.73;98.86
76374;BME280;65197;50.164;8.012;2023-07-02T07:09:10;95042.84;;;15.82;95.37
76374;BME280;65197;50.164;8.012;2023-07-02T07:11:35;95036.97;;;16.14;93.26
76374;BME280;65197;50.164;8.012;2023-07-02T07:14:01;95036.91;;;16.68;89.51
76374;BME280;65197;50.164;8.012;2023-07-02T07:16:26;95038.81;;;16.98;87.54
76374;BME280;65197;50.164;8.012;2023-07-02T07:18:52;95047.91;;;17.23;87.52
76374;BME280;65197;50.164;8.012;2023-07-02T07:21:18;95034.69;;;17.38;85.11
76374;BME280;65197;50.164;8.012;2023-07-02T07:23:43;95028.31;;;18.53;81.07
76374;BME280;65197;50.164;8.012;2023-07-02T07:26:08;95029.56;;;18.68;77.98
76374;BME280;65197;50.164;8.012;2023-07-02T07:28:34;95022.50;;;18.01;79.18
76374;BME280;65197;50.164;8.012;2023-07-02T07:30:59;95041.00;;;19.04;76.27
76374;BME280;65197;50.164;8.012;2023-07-02T07:33:25;95036.38;;;18.79;73.59
76374;BME280;65197;50.164;8.012;2023-07-02T07:35:50;95044.41;;;18.76;75.80
76374;BME280;65197;50.164;8.012;2023-07-02T07:38:15;95036.91;;;18.63;76.32
76374;BME280;65197;50.164;8.012;2023-07-02T07:40:43;95034.75;;;17.99;74.78
76374;BME280;65197;50.164;8.012;2023-07-02T07:43:08;95034.97;;;19.33;73.51
76374;BME280;65197;50.164;8.012;2023-07-02T07:45:34;95023.25;;;19.86;68.94
76374;BME280;65197;50.164;8.012;2023-07-02T07:47:59;95031.78;;;20.23;68.83
76374;BME280;65197;50.164;8.012;2023-07-02T07:50:27;95032.53;;;20.33;67.57
76374;BME280;65197;50.164;8.012;2023-07-02T07:52:53;95041.63;;;21.01;63.57
76374;BME280;65197;50.164;8.012;2023-07-02T07:55:18;95038.88;;;19.66;70.26
76374;BME280;65197;50.164;8.012;2023-07-02T07:57:44;95035.63;;;20.19;67.30
76374;BME280;65197;50.164;8.012;2023-07-02T08:00:09;95037.59;;;19.23;69.65
76374;BME280;65197;50.164;8.012;2023-07-02T08:02:35;95035.13;;;18.54;72.67
76374;BME280;65197;50.164;8.012;2023-07-02T08:05:01;95047.31;;;18.32;76.81
76374;BME280;65197;50.164;8.012;2023-07-02T08:07:26;95048.84;;;17.95;74.74
76374;BME280;65197;50.164;8.012;2023-07-02T08:09:51;95047.53;;;18.10;76.74
76374;BME280;65197;50.164;8.012;2023-07-02T08:12:17;95056.16;;;17.90;77.75
76374;BME280;65197;50.164;8.012;2023-07-02T08:14:42;95048.38;;;18.20;75.75
76374;BME280;65197;50.164;8.012;2023-07-02T08:17:08;95048.31;;;18.01;75.80
76374;BME280;65197;50.164;8.012;2023-07-02T08:19:33;95053.44;;;17.40;77.50
76374;BME280;65197;50.164;8.012;2023-07-02T08:21:58;95047.66;;;16.85;79.81
76374;BME280;65197;50.164;8.012;2023-07-02T08:24:24;95058.91;;;16.29;82.79
76374;BME280;65197;50.164;8.012;2023-07-02T08:26:49;95074.13;;;16.21;85.08
76374;BME280;65197;50.164;8.012;2023-07-02T08:29:15;95052.28;;;15.93;86.65
76374;BME280;65197;50.164;8.012;2023-07-02T08:31:40;95047.56;;;16.20;87.09
76374;BME280;65197;50.164;8.012;2023-07-02T08:34:06;95059.94;;;16.38;85.68
76374;BME280;65197;50.164;8.012;2023-07-02T08:36:31;95074.31;;;16.40;84.47
76374;BME280;65197;50.164;8.012;2023-07-02T08:38:57;95066.50;;;16.42;84.25
76374;BME280;65197;50.164;8.012;2023-07-02T08:41:22;95065.53;;;16.86;82.01
76374;BME280;65197;50.164;8.012;2023-07-02T08:43:49;95066.94;;;16.90;82.92
76374;BME280;65197;50.164;8.012;2023-07-02T08:46:15;95080.44;;;17.87;78.21
76374;BME280;65197;50.164;8.012;2023-07-02T08:48:41;95072.75;;;17.97;78.19
76374;BME280;65197;50.164;8.012;2023-07-02T08:51:07;95086.94;;;17.81;78.06
76374;BME280;65197;50.164;8.012;2023-07-02T08:53:32;95084.75;;;17.77;77.95
76374;BME280;65197;50.164;8.012;2023-07-02T08:56:03;95076.44;;;17.73;79.01
76374;BME280;65197;50.164;8.012;2023-07-02T08:58:28;95096.69;;;17.78;79.23
76374;BME280;65197;50.164;8.012;2023-07-02T09:01:04;95076.44;;;17.73;81.94
76374;BME280;65197;50.164;8.012;2023-07-02T09:03:30;95079.25;;;17.70;79.86
76374;BME280;65197;50.164;8.012;2023-07-02T09:05:55;95084.06;;;17.54;78.81
76374;BME280;65197;50.164;8.012;2023-07-02T09:08:27;95089.41;;;17.20;78.87
76374;BME280;65197;50.164;8.012;2023-07-02T09:11:15;95104.06;;;16.88;79.93
76374;BME280;65197;50.164;8.012;2023-07-02T09:13:47;95103.34;;;16.97;83.63
76374;BME280;65197;50.164;8.012;2023-07-02T09:16:32;95106.94;;;16.73;80.26
76374;BME280;65197;50.164;8.012;2023-07-02T09:19:00;95112.25;;;16.93;80.36
76374;BME280;65197;50.164;8.012;2023-07-02T09:24:31;95113.75;;;18.90;72.38
76374;BME280;65197;50.164;8.012;2023-07-02T09:27:01;95094.81;;;19.67;66.19
76374;BME280;65197;50.164;8.012;2023-07-02T09:29:31;95114.16;;;20.47;66.86
76374;BME280;65197;50.164;8.012;2023-07-02T09:32:01;95105.63;;;20.27;62.15
76374;BME280;65197;50.164;8.012;2023-07-02T09:34:35;95093.16;;;20.13;60.84
76374;BME280;65197;50.164;8.012;2023-07-02T09:37:01;95109.09;;;20.46;56.74
76374;BME280;65197;50.164;8.012;2023-07-02T09:39:29;95088.13;;;20.39;58.35
76374;BME280;65197;50.164;8.012;2023-07-02T09:41:56;95098.00;;;21.17;54.94
76374;BME280;65197;50.164;8.012;2023-07-02T09:44:27;95111.53;;;20.57;54.67
76374;BME280;65197;50.164;8.012;2023-07-02T09:47:00;95113.81;;;19.95;56.60
76374;BME280;65197;50.164;8.012;2023-07-02T09:49:26;95116.16;;;20.99;55.63
76374;BME280;65197;50.164;8.012;2023-07-02T09:51:52;95101.34;;;19.52;56.86
76374;BME280;65197;50.164;8.012;2023-07-02T09:54:18;95106.84;;;19.00;60.55
76374;BME280;65197;50.164;8.012;2023-07-02T09:56:46;95099.00;;;18.52;64.23
76374;BME280;65197;50.164;8.012;2023-07-02T09:59:11;95111.63;;;18.05;62.61
76374;BME280;65197;50.164;8.012;2023-07-02T10:01:38;95105.44;;;18.17;65.07
76374;BME280;65197;50.164;8.012;2023-07-02T10:04:13;95105.94;;;19.77;60.24
76374;BME280;65197;50.164;8.012;2023-07-02T10:06:53;95111.56;;;20.38;55.20
76374;BME280;65197;50.164;8.012;2023-07-02T10:09:19;95104.41;;;21.40;56.68
76374;BME280;65197;50.164;8.012;2023-07-02T10:11:45;95100.38;;;21.72;51.88
76374;BME280;65197;50.164;8.012;2023-07-02T10:14:11;95104.06;;;20.72;53.65
76374;BME280;65197;50.164;8.012;2023-07-02T10:16:54;95099.59;;;19.52;52.09
76374;BME280;65197;50.164;8.012;2023-07-02T10:19:20;95096.63;;;20.59;52.34
76374;BME280;65197;50.164;8.012;2023-07-02T10:21:45;95106.00;;;21.05;49.95
76374;BME280;65197;50.164;8.012;2023-07-02T10:24:16;95100.78;;;20.70;52.45
76374;BME280;65197;50.164;8.012;2023-07-02T10:26:59;95126.03;;;20.03;55.20
76374;BME280;65197;50.164;8.012;2023-07-02T10:29:26;95100.63;;;20.53;53.64
76374;BME280;65197;50.164;8.012;2023-07-02T10:31:56;95098.75;;;20.91;50.69
76374;BME280;65197;50.164;8.012;2023-07-02T10:34:32;95105.56;;;21.28;47.10
76374;BME280;65197;50.164;8.012;2023-07-02T10:36:59;95103.31;;;21.69;46.83
76374;BME280;65197;50.164;8.012;2023-07-02T10:39:24;95097.50;;;21.75;47.01
76374;BME280;65197;50.164;8.012;2023-07-02T10:41:50;95103.06;;;21.36;46.83
76374;BME280;65197;50.164;8.012;2023-07-02T10:44:15;95110.94;;;20.63;46.22
76374;BME280;65197;50.164;8.012;2023-07-02T10:46:48;95104.34;;;19.57;49.86
76374;BME280;65197;50.164;8.012;2023-07-02T10:49:16;95083.69;;;18.89;50.44
76374;BME280;65197;50.164;8.012;2023-07-02T10:51:42;95099.34;;;19.26;52.72
76374;BME280;65197;50.164;8.012;2023-07-02T10:54:07;95121.38;;;19.21;54.07
76374;BME280;65197;50.164;8.012;2023-07-02T10:56:34;95116.31;;;18.80;54.81
76374;BME280;65197;50.164;8.012;2023-07-02T10:58:59;95107.16;;;18.57;57.15
76374;BME280;65197;50.164;8.012;2023-07-02T11:01:30;95106.91;;;18.60;57.76
76374;BME280;65197;50.164;8.012;2023-07-02T11:04:03;95113.81;;;18.50;56.97
76374;BME280;65197;50.164;8.012;2023-07-02T11:06:32;95111.75;;;19.99;54.04
76374;BME280;65197;50.164;8.012;2023-07-02T11:08:58;95102.25;;;21.00;48.92
76374;BME280;65197;50.164;8.012;2023-07-02T11:11:24;95103.78;;;21.72;47.66
76374;BME280;65197;50.164;8.012;2023-07-02T11:13:50;95103.97;;;21.53;45.49
76374;BME280;65197;50.164;8.012;2023-07-02T11:16:24;95112.00;;;21.06;47.45
76374;BME280;65197;50.164;8.012;2023-07-02T11:19:06;95103.53;;;20.68;49.22
76374;BME280;65197;50.164;8.012;2023-07-02T11:21:33;95111.94;;;20.15;49.40
76374;BME280;65197;50.164;8.012;2023-07-02T11:24:03;95100.13;;;21.21;46.48
76374;BME280;65197;50.164;8.012;2023-07-02T11:26:39;95096.84;;;22.07;44.98
76374;BME280;65197;50.164;8.012;2023-07-02T11:29:10;95096.97;;;22.23;43.17
76374;BME280;65197;50.164;8.012;2023-07-02T11:31:36;95110.09;;;22.64;41.18
76374;BME280;65197;50.164;8.012;2023-07-02T11:34:05;95110.22;;;22.12;41.57
76374;BME280;65197;50.164;8.012;2023-07-02T11:36:36;95116.31;;;21.51;44.36
76374;BME280;65197;50.164;8.012;2023-07-02T11:39:01;95102.00;;;21.29;45.99
76374;BME280;65197;50.164;8.012;2023-07-02T11:41:36;95115.03;;;21.01;46.37
76374;BME280;65197;50.164;8.012;2023-07-02T11:44:02;95107.59;;;20.53;46.42
76374;BME280;65197;50.164;8.012;2023-07-02T11:46:27;95118.81;;;20.71;47.57
76374;BME280;65197;50.164;8.012;2023-07-02T11:48:52;95107.06;;;20.12;49.36
76374;BME280;65197;50.164;8.012;2023-07-02T11:51:18;95129.53;;;19.74;50.96
76374;BME280;65197;50.164;8.012;2023-07-02T11:53:43;95133.63;;;19.48;53.30
76374;BME280;65197;50.164;8.012;2023-07-02T11:56:09;95130.78;;;19.61;52.60
76374;BME280;65197;50.164;8.012;2023-07-02T11:58:35;95130.88;;;19.59;52.30
76374;BME280;65197;50.164;8.012;2023-07-02T12:01:00;95120.28;;;19.62;54.67
76374;BME280;65197;50.164;8.012;2023-07-02T12:03:25;95133.59;;;19.77;52.67
76374;BME280;65197;50.164;8.012;2023-07-02T12:05:51;95128.69;;;19.83;52.54
76374;BME280;65197;50.164;8.012;2023-07-02T12:08:16;95127.88;;;19.54;51.39
76374;BME280;65197;50.164;8.012;2023-07-02T12:10:42;95131.88;;;19.19;51.87
76374;BME280;65197;50.164;8.012;2023-07-02T12:13:07;95134.47;;;19.00;54.37
76374;BME280;65197;50.164;8.012;2023-07-02T12:15:33;95132.94;;;18.97;54.08
76374;BME280;65197;50.164;8.012;2023-07-02T12:17:58;95139.88;;;19.16;52.82
76374;BME280;65197;50.164;8.012;2023-07-02T12:20:23;95144.25;;;19.06;53.41
76374;BME280;65197;50.164;8.012;2023-07-02T12:22:49;95128.44;;;18.90;53.46
76374;BME280;65197;50.164;8.012;2023-07-02T12:25:14;95137.03;;;19.00;53.32
76374;BME280;65197;50.164;8.012;2023-07-02T12:27:39;95142.06;;;18.92;54.19
76374;BME280;65197;50.164;8.012;2023-07-02T12:30:05;95139.06;;;19.16;53.56
76374;BME280;65197;50.164;8.012;2023-07-02T12:32:31;95152.38;;;18.92;52.01
76374;BME280;65197;50.164;8.012;2023-07-02T12:34:56;95141.91;;;19.22;54.73
76374;BME280;65197;50.164;8.012;2023-07-02T12:37:21;95121.94;;;19.24;55.09
76374;BME280;65197;50.164;8.012;2023-07-02T12:39:47;95118.41;;;19.16;53.15
76374;BME280;65197;50.164;8.012;2023-07-02T12:42:12;95132.28;;;19.05;54.74
76374;BME280;65197;50.164;8.012;2023-07-02T12:44:38;95142.88;;;19.02;55.26
76374;BME280;65197;50.164;8.012;2023-07-02T12:47:03;95137.75;;;18.62;55.78
76374;BME280;65197;50.164;8.012;2023-07-02T12:49:28;95130.03;;;18.21;57.96
76374;BME280;65197;50.164;8.012;2023-07-02T12:51:54;95138.09;;;18.38;58.36
76374;BME280;65197;50.164;8.012;2023-07-02T12:54:19;95143.00;;;18.41;58.43
76374;BME280;65197;50.164;8.012;2023-07-02T12:56:44;95154.47;;;18.67;56.50